Time;durP1;ratioP1;P1;durP2;ratioP2;P2;SDS_P1;SDS_P2;PMS_P1;PMS_P2;Temp;Humidity;BMP_temperature;BMP_pressure;BME280_temperature;BME280_humidity;BME280_pressure;Samples;Min_cycle;Max_cycle;Signal;HPM_P1;HPM_P2
2022/05/22 00:01:52;;;;;;;1.52;0.90;;;14.00;67.00;;;;;;4966276;28;20026;-72
2022/05/22 00:04:18;;;;;;;1.95;1.08;;;14.00;67.20;;;;;;4975944;28;20048;-73
2022/05/22 00:06:43;;;;;;;3.00;1.05;;;13.90;67.20;;;;;;4972706;28;20027;-72
2022/05/22 00:09:09;;;;;;;3.03;0.95;;;13.80;67.30;;;;;;4979065;28;20039;-72
2022/05/22 00:11:34;;;;;;;1.80;0.80;;;13.80;67.40;;;;;;4959269;28;20044;-72
2022/05/22 00:14:00;;;;;;;2.53;0.77;;;13.80;67.60;;;;;;4993130;28;20042;-72
2022/05/22 00:16:37;;;;;;;4.05;0.90;;;13.70;67.80;;;;;;4976534;28;20415;-73
2022/05/22 00:19:16;;;;;;;1.23;0.90;;;13.60;67.90;;;;;;4993756;28;20410;-73
2022/05/22 00:21:42;;;;;;;2.42;1.13;;;13.60;68.30;;;;;;4960481;28;20034;-72
2022/05/22 00:24:08;;;;;;;3.42;1.20;;;13.70;68.20;;;;;;4983173;28;20036;-72
2022/05/22 00:26:33;;;;;;;1.88;0.93;;;13.60;68.20;;;;;;4993045;28;20529;-72
2022/05/22 00:28:59;;;;;;;3.80;0.90;;;13.60;68.30;;;;;;4991670;28;20038;-71
2022/05/22 00:31:24;;;;;;;1.27;0.90;;;13.60;68.40;;;;;;4963271;28;20707;-71
2022/05/22 00:33:50;;;;;;;0.98;0.80;;;13.70;68.40;;;;;;4949775;28;20658;-72
2022/05/22 00:36:16;;;;;;;1.70;0.80;;;13.70;68.50;;;;;;4982324;28;20026;-73
2022/05/22 00:38:41;;;;;;;2.15;0.95;;;13.70;68.50;;;;;;4949052;28;20038;-71
2022/05/22 00:41:07;;;;;;;1.00;0.90;;;13.70;68.50;;;;;;4973110;28;20038;-72
2022/05/22 00:43:35;;;;;;;3.92;0.93;;;13.70;68.60;;;;;;4974656;28;20092;-71
2022/05/22 00:46:01;;;;;;;4.45;1.10;;;13.70;68.50;;;;;;4968075;28;20050;-71
2022/05/22 00:48:27;;;;;;;2.35;1.20;;;13.70;68.70;;;;;;4978404;28;20068;-72
2022/05/22 00:50:55;;;;;;;2.65;1.10;;;13.70;68.80;;;;;;4991811;28;20471;-72
2022/05/22 00:53:21;;;;;;;3.85;1.30;;;13.70;69.00;;;;;;4951969;28;20059;-71
2022/05/22 00:55:46;;;;;;;1.73;1.00;;;13.70;68.90;;;;;;4967038;28;21200;-72
2022/05/22 00:58:14;;;;;;;3.08;1.02;;;13.70;69.10;;;;;;4945786;28;20547;-72
2022/05/22 01:00:39;;;;;;;1.70;0.90;;;13.60;69.10;;;;;;4964163;28;20038;-72
2022/05/22 01:03:27;;;;;;;4.07;1.25;;;13.60;69.20;;;;;;4977829;28;20534;-72
2022/05/22 01:06:00;;;;;;;5.28;1.25;;;13.50;69.20;;;;;;4965769;28;20037;-72
2022/05/22 01:08:26;;;;;;;2.83;1.13;;;13.50;69.20;;;;;;4976269;28;20092;-73
2022/05/22 01:11:00;;;;;;;2.25;1.20;;;13.40;69.40;;;;;;4975231;28;20077;-73
2022/05/22 01:13:33;;;;;;;2.70;1.45;;;13.40;69.80;;;;;;4976242;28;20553;-72
2022/05/22 01:15:59;;;;;;;2.55;1.20;;;13.40;69.90;;;;;;4991827;28;20623;-73
2022/05/22 01:18:26;;;;;;;4.32;1.30;;;13.40;69.70;;;;;;4990978;28;20026;-72
2022/05/22 01:20:52;;;;;;;2.88;1.02;;;13.30;69.80;;;;;;4994389;28;20125;-72
2022/05/22 01:23:17;;;;;;;2.50;1.00;;;13.30;69.90;;;;;;4984116;28;20597;-72
2022/05/22 01:25:43;;;;;;;1.65;1.20;;;13.20;70.00;;;;;;4977865;28;20096;-72
2022/05/22 01:28:09;;;;;;;2.47;0.93;;;13.20;70.00;;;;;;4999057;28;20040;-72
2022/05/22 01:30:35;;;;;;;1.35;1.08;;;13.20;70.40;;;;;;4950744;28;20034;-72
2022/05/22 01:33:01;;;;;;;1.25;0.80;;;13.20;70.30;;;;;;4986399;28;20042;-71
2022/05/22 01:35:27;;;;;;;3.83;1.20;;;13.10;70.30;;;;;;4977311;28;20030;-72
2022/05/22 01:37:53;;;;;;;1.90;1.15;;;13.10;70.40;;;;;;4983295;28;20038;-72
2022/05/22 01:40:19;;;;;;;2.67;1.35;;;13.00;70.40;;;;;;4976263;28;20088;-72
2022/05/22 01:42:44;;;;;;;1.45;1.13;;;13.00;70.50;;;;;;4978424;28;20045;-72
2022/05/22 01:45:12;;;;;;;4.13;1.02;;;12.90;70.60;;;;;;4985321;28;20498;-72
2022/05/22 01:47:37;;;;;;;1.85;1.10;;;12.90;70.70;;;;;;4961204;28;20739;-72
2022/05/22 01:50:04;;;;;;;1.50;1.13;;;12.90;70.80;;;;;;4994347;28;20046;-72
2022/05/22 01:52:29;;;;;;;2.42;1.38;;;12.90;70.90;;;;;;4974593;28;20045;-71
2022/05/22 01:54:55;;;;;;;3.60;1.10;;;12.90;70.80;;;;;;4960813;28;20541;-72
2022/05/22 01:57:20;;;;;;;2.30;1.25;;;12.90;70.90;;;;;;4977985;28;20380;-72
2022/05/22 01:59:46;;;;;;;2.38;1.20;;;12.80;71.00;;;;;;4964906;28;20059;-71
2022/05/22 02:02:11;;;;;;;2.00;1.00;;;12.80;71.00;;;;;;4967042;28;20042;-72
2022/05/22 02:04:37;;;;;;;1.83;1.13;;;12.80;71.10;;;;;;4963597;28;20557;-73
2022/05/22 02:09:47;;;;;;;2.80;1.35;;;12.70;71.30;;;;;;4968745;28;20100;-72
2022/05/22 02:12:13;;;;;;;3.92;1.20;;;12.70;71.20;;;;;;4993754;28;20057;-72
2022/05/22 02:14:38;;;;;;;2.67;1.40;;;12.70;71.30;;;;;;4998172;28;20045;-71
2022/05/22 02:17:04;;;;;;;4.68;2.22;;;12.70;71.30;;;;;;4968255;28;20038;-71
2022/05/22 02:19:30;;;;;;;4.18;1.40;;;12.70;71.50;;;;;;4980030;28;20554;-73
2022/05/22 02:21:55;;;;;;;2.97;1.30;;;12.60;71.50;;;;;;4996128;28;20030;-72
2022/05/22 02:24:21;;;;;;;3.45;1.20;;;12.60;71.70;;;;;;4956581;28;20038;-72
2022/05/22 02:26:46;;;;;;;2.58;1.30;;;12.60;71.80;;;;;;4971612;28;20053;-72
2022/05/22 02:29:12;;;;;;;3.10;1.33;;;12.50;71.80;;;;;;4991905;28;20034;-74
2022/05/22 02:31:37;;;;;;;1.33;1.02;;;12.50;71.70;;;;;;4981966;28;20462;-72
2022/05/22 02:34:03;;;;;;;2.33;1.20;;;12.50;71.80;;;;;;4976738;28;20038;-72
2022/05/22 02:36:28;;;;;;;3.20;1.38;;;12.50;71.90;;;;;;4995274;28;20030;-72
2022/05/22 02:38:54;;;;;;;1.30;1.00;;;12.50;71.90;;;;;;4981017;28;20030;-72
2022/05/22 02:41:21;;;;;;;2.28;1.30;;;12.50;71.90;;;;;;4963335;28;20050;-72
2022/05/22 02:43:46;;;;;;;2.00;1.42;;;12.40;71.90;;;;;;4990090;28;20084;-73
2022/05/22 02:46:14;;;;;;;4.28;1.20;;;12.40;71.90;;;;;;4954634;28;20096;-72
2022/05/22 02:48:52;;;;;;;1.75;1.30;;;12.40;72.00;;;;;;4985778;28;20449;-73
2022/05/22 02:51:19;;;;;;;1.90;1.35;;;12.40;72.20;;;;;;4979353;28;20088;-73
2022/05/22 02:53:44;;;;;;;4.32;1.17;;;12.40;72.20;;;;;;4981049;28;20726;-71
2022/05/22 02:56:12;;;;;;;2.25;1.23;;;12.30;72.30;;;;;;4948559;28;20034;-72
2022/05/22 02:58:37;;;;;;;5.60;1.25;;;12.30;72.40;;;;;;4981713;28;20481;-71
2022/05/22 03:01:03;;;;;;;2.83;1.20;;;12.30;72.60;;;;;;4982017;28;20053;-72
2022/05/22 03:03:29;;;;;;;2.80;1.20;;;12.30;72.60;;;;;;4978423;28;20038;-71
2022/05/22 03:08:39;;;;;;;3.33;1.23;;;12.30;72.90;;;;;;4949396;28;20052;-72
2022/05/22 03:11:05;;;;;;;1.25;1.10;;;12.40;72.80;;;;;;4942807;28;20038;-71
2022/05/22 03:13:30;;;;;;;2.15;1.15;;;12.40;72.80;;;;;;4961741;28;20037;-73
2022/05/22 03:15:56;;;;;;;3.05;1.52;;;12.40;72.80;;;;;;4980365;28;20034;-71
2022/05/22 03:18:21;;;;;;;4.75;1.48;;;12.40;72.80;;;;;;4994734;28;20034;-73
2022/05/22 03:20:47;;;;;;;2.70;1.30;;;12.40;73.00;;;;;;4957035;28;20046;-72
2022/05/22 03:23:13;;;;;;;2.30;1.40;;;12.30;72.90;;;;;;4947646;28;20035;-72
2022/05/22 03:25:39;;;;;;;2.45;1.35;;;12.30;73.10;;;;;;4972877;28;20647;-72
2022/05/22 03:28:05;;;;;;;1.98;1.63;;;12.30;73.20;;;;;;4975199;28;20038;-71
2022/05/22 03:30:30;;;;;;;3.28;1.10;;;12.30;73.30;;;;;;4976766;28;20521;-73
2022/05/22 03:32:56;;;;;;;5.32;1.20;;;12.30;73.40;;;;;;4991204;28;20072;-72
2022/05/22 03:35:21;;;;;;;4.90;1.80;;;12.30;73.40;;;;;;4961289;28;20113;-72
2022/05/22 03:37:47;;;;;;;1.95;1.40;;;12.20;73.40;;;;;;4982048;28;20109;-72
2022/05/22 03:40:13;;;;;;;2.38;1.23;;;12.20;73.50;;;;;;4935067;28;20046;-73
2022/05/22 03:42:39;;;;;;;1.38;1.20;;;12.10;73.60;;;;;;4946638;28;20045;-72
2022/05/22 03:45:05;;;;;;;2.58;1.25;;;12.10;73.60;;;;;;4978377;28;20061;-73
2022/05/22 03:47:30;;;;;;;2.83;1.23;;;12.10;74.60;;;;;;4976807;28;20121;-71
2022/05/22 03:49:56;;;;;;;1.40;1.27;;;12.10;74.00;;;;;;4992190;28;20495;-72
2022/05/22 03:52:22;;;;;;;3.05;1.25;;;12.10;74.00;;;;;;4995743;28;20121;-73
2022/05/22 03:54:47;;;;;;;3.45;1.27;;;12.10;74.00;;;;;;4973369;28;20042;-72
2022/05/22 03:57:13;;;;;;;1.23;1.00;;;12.10;74.00;;;;;;4978337;28;20638;-72
2022/05/22 03:59:42;;;;;;;3.20;1.23;;;12.00;74.00;;;;;;4982011;28;20486;-71
2022/05/22 04:02:07;;;;;;;2.47;1.48;;;12.00;74.00;;;;;;4951825;28;20038;-73
2022/05/22 04:04:33;;;;;;;2.05;1.27;;;12.10;74.10;;;;;;4945722;28;20100;-72
2022/05/22 04:06:58;;;;;;;4.22;1.40;;;12.00;74.10;;;;;;4948147;28;20066;-73
2022/05/22 04:09:27;;;;;;;1.88;1.25;;;12.00;74.20;;;;;;4945285;28;20116;-73
2022/05/22 04:11:52;;;;;;;1.90;1.13;;;12.00;75.20;;;;;;4971495;28;20602;-72
2022/05/22 04:14:18;;;;;;;2.05;1.50;;;11.90;74.30;;;;;;4960304;28;20035;-72
2022/05/22 04:16:44;;;;;;;1.70;1.35;;;12.00;74.40;;;;;;4960255;28;20507;-72
2022/05/22 04:19:10;;;;;;;3.08;1.48;;;12.00;74.50;;;;;;4968940;28;20039;-72
2022/05/22 04:21:35;;;;;;;1.40;1.20;;;11.90;74.50;;;;;;4963763;28;20042;-72
2022/05/22 04:26:45;;;;;;;3.15;1.10;;;12.00;74.70;;;;;;4959848;28;20526;-72
2022/05/22 04:29:10;;;;;;;2.65;1.40;;;12.00;74.70;;;;;;4972450;28;20050;-73
2022/05/22 04:31:36;;;;;;;2.20;1.13;;;12.00;74.80;;;;;;4942462;28;20027;-72
2022/05/22 04:34:01;;;;;;;2.33;1.30;;;12.00;74.70;;;;;;4961410;28;20125;-73
2022/05/22 04:36:27;;;;;;;1.45;1.33;;;12.00;74.70;;;;;;4972824;28;20046;-72
2022/05/22 04:38:52;;;;;;;4.80;1.42;;;12.00;74.70;;;;;;4942814;28;20042;-73
2022/05/22 04:41:18;;;;;;;3.47;1.20;;;12.10;74.70;;;;;;4959869;28;20042;-72
2022/05/22 04:43:44;;;;;;;1.95;1.35;;;12.10;74.70;;;;;;4949869;28;20034;-72
2022/05/22 04:46:09;;;;;;;1.30;1.20;;;12.10;74.80;;;;;;4940541;28;20117;-72
2022/05/22 04:48:35;;;;;;;2.30;1.58;;;12.10;74.80;;;;;;4959849;28;20523;-73
2022/05/22 04:51:01;;;;;;;2.20;1.50;;;12.10;74.90;;;;;;4957154;28;20049;-72
2022/05/22 04:53:27;;;;;;;1.52;1.20;;;12.10;74.90;;;;;;4950381;28;20098;-74
2022/05/22 04:55:52;;;;;;;5.13;1.70;;;12.10;75.10;;;;;;4956562;28;20035;-73
2022/05/22 04:58:19;;;;;;;3.58;1.58;;;12.20;75.10;;;;;;4963278;28;20612;-72
2022/05/22 05:00:45;;;;;;;2.85;1.40;;;12.20;75.20;;;;;;4935689;28;20030;-72
2022/05/22 05:03:11;;;;;;;6.82;2.10;;;12.20;75.20;;;;;;4942533;28;20100;-71
2022/05/22 05:05:38;;;;;;;3.88;2.08;;;12.20;75.20;;;;;;4983174;28;20041;-72
2022/05/22 05:08:03;;;;;;;1.67;1.50;;;12.30;75.50;;;;;;4962596;28;20113;-72
2022/05/22 05:10:30;;;;;;;3.70;1.65;;;12.30;75.50;;;;;;4994733;28;20034;-72
2022/05/22 05:12:55;;;;;;;1.60;1.50;;;12.40;75.60;;;;;;4997952;28;20495;-72
2022/05/22 05:15:21;;;;;;;3.50;1.67;;;12.40;75.70;;;;;;4973751;28;20037;-72
2022/05/22 05:17:47;;;;;;;4.95;1.90;;;12.40;75.80;;;;;;4985682;28;20029;-72
2022/05/22 05:20:16;;;;;;;3.75;1.60;;;12.50;75.80;;;;;;4984832;28;20120;-72
2022/05/22 05:22:42;;;;;;;3.15;1.70;;;12.50;75.80;;;;;;4984011;28;20846;-72
2022/05/22 05:25:07;;;;;;;3.75;2.00;;;12.60;75.80;;;;;;4973786;28;20069;-72
2022/05/22 05:27:33;;;;;;;3.78;1.67;;;12.60;75.90;;;;;;4984584;28;20112;-72
2022/05/22 05:29:59;;;;;;;3.35;1.42;;;12.70;75.80;;;;;;4987777;28;20062;-74
2022/05/22 05:32:24;;;;;;;2.58;1.65;;;12.70;75.70;;;;;;4996557;28;20164;-72
2022/05/22 05:34:59;;;;;;;3.35;1.42;;;12.70;75.60;;;;;;4968420;28;20089;-73
2022/05/22 05:37:24;;;;;;;2.97;1.27;;;12.80;75.90;;;;;;4990320;28;20037;-72
2022/05/22 05:39:51;;;;;;;4.07;1.90;;;12.90;75.70;;;;;;4982498;28;20030;-72
2022/05/22 05:42:17;;;;;;;2.63;1.60;;;12.90;75.60;;;;;;4980259;28;20030;-72
2022/05/22 05:44:42;;;;;;;4.90;1.70;;;13.00;75.80;;;;;;4961161;28;20031;-73
2022/05/22 05:47:08;;;;;;;3.05;2.00;;;13.00;75.80;;;;;;4974850;28;20038;-71
2022/05/22 05:49:36;;;;;;;6.50;2.08;;;13.10;75.90;;;;;;4949087;28;20130;-73
2022/05/22 05:52:02;;;;;;;3.55;1.60;;;13.20;75.80;;;;;;4971268;28;20038;-73
2022/05/22 05:54:27;;;;;;;3.58;1.90;;;13.20;75.80;;;;;;4979829;28;20030;-73
2022/05/22 05:56:53;;;;;;;3.03;1.52;;;13.30;75.60;;;;;;4982951;28;20655;-72
2022/05/22 05:59:18;;;;;;;4.25;1.80;;;13.30;75.50;;;;;;4999606;28;20034;-72
2022/05/22 06:01:44;;;;;;;5.18;1.73;;;13.40;75.40;;;;;;4997522;28;20038;-72
2022/05/22 06:04:09;;;;;;;7.40;1.50;;;13.40;75.40;;;;;;4979289;28;20046;-72
2022/05/22 06:06:35;;;;;;;1.88;1.50;;;13.50;75.40;;;;;;4999612;28;20392;-72
2022/05/22 06:09:00;;;;;;;5.20;1.95;;;13.60;75.20;;;;;;4984648;28;20100;-73
2022/05/22 06:11:26;;;;;;;1.95;1.75;;;13.70;75.20;;;;;;4979702;28;20506;-73
2022/05/22 06:13:52;;;;;;;3.45;1.70;;;13.80;75.20;;;;;;4968195;28;20590;-73
2022/05/22 06:16:17;;;;;;;2.90;1.80;;;13.90;75.20;;;;;;4968739;28;20050;-73
2022/05/22 06:18:43;;;;;;;3.53;2.22;;;14.00;75.10;;;;;;4963798;28;20034;-74
2022/05/22 06:21:29;;;;;;;3.05;1.70;;;14.00;75.00;;;;;;4996281;28;20068;-73
2022/05/22 06:23:55;;;;;;;3.22;1.42;;;14.20;75.20;;;;;;4982720;28;20054;-72
2022/05/22 06:26:20;;;;;;;6.05;2.03;;;14.30;74.60;;;;;;5000051;28;20537;-72
2022/05/22 06:28:46;;;;;;;4.43;1.70;;;14.40;74.50;;;;;;4996347;28;20125;-72
2022/05/22 06:31:12;;;;;;;2.08;1.88;;;14.50;74.30;;;;;;4983190;28;20030;-73
2022/05/22 06:33:38;;;;;;;3.05;1.90;;;14.60;74.20;;;;;;4961279;28;20070;-73
2022/05/22 06:36:10;;;;;;;2.53;1.40;;;14.70;74.20;;;;;;4974806;28;20054;-72
2022/05/22 06:41:19;;;;;;;1.63;1.35;;;15.00;73.90;;;;;;4977763;28;20053;-72
2022/05/22 06:43:46;;;;;;;4.25;1.55;;;15.10;73.70;;;;;;4970731;28;20026;-74
2022/05/22 06:46:11;;;;;;;1.77;1.50;;;15.20;73.40;;;;;;4968191;28;20070;-73
2022/05/22 06:48:37;;;;;;;2.65;1.80;;;15.30;73.30;;;;;;4968129;28;20063;-71
2022/05/22 06:51:02;;;;;;;3.22;1.45;;;15.40;73.20;;;;;;4983397;28;20529;-71
2022/05/22 06:53:28;;;;;;;3.05;1.65;;;15.60;73.20;;;;;;4971412;28;20033;-73
2022/05/22 06:55:54;;;;;;;2.47;1.60;;;15.70;72.90;;;;;;4983781;28;20552;-73
2022/05/22 06:58:19;;;;;;;2.10;1.40;;;15.80;72.80;;;;;;4984038;28;20040;-74
2022/05/22 07:00:50;;;;;;;4.80;1.80;;;16.00;72.60;;;;;;4967536;28;20058;-75
2022/05/22 07:03:16;;;;;;;2.90;1.50;;;16.20;72.50;;;;;;4993675;28;20073;-72
2022/05/22 07:05:41;;;;;;;4.72;1.77;;;16.30;72.20;;;;;;4964357;28;20693;-73
2022/05/22 07:08:07;;;;;;;2.28;1.20;;;16.50;71.90;;;;;;4984453;28;20038;-73
2022/05/22 07:13:19;;;;;;;3.75;1.30;;;16.80;71.20;;;;;;4984481;28;20037;-74
2022/05/22 07:15:45;;;;;;;4.18;1.38;;;16.90;70.80;;;;;;4986798;28;21647;-73
2022/05/22 07:18:11;;;;;;;3.47;1.40;;;17.10;70.60;;;;;;4962069;28;20030;-74
2022/05/22 07:20:36;;;;;;;1.73;1.10;;;17.20;70.30;;;;;;4960560;28;20053;-73
2022/05/22 07:23:02;;;;;;;3.42;1.35;;;17.40;70.10;;;;;;4987452;28;20100;-73
2022/05/22 07:25:28;;;;;;;2.03;1.10;;;17.60;69.60;;;;;;4996900;28;20065;-74
2022/05/22 07:27:53;;;;;;;2.38;1.35;;;17.70;69.20;;;;;;4993310;28;20245;-73
2022/05/22 07:30:19;;;;;;;5.15;1.40;;;17.90;68.90;;;;;;4998506;28;20449;-74
2022/05/22 07:32:44;;;;;;;1.77;1.20;;;18.10;68.50;;;;;;4968554;28;20565;-74
2022/05/22 07:35:10;;;;;;;3.40;1.15;;;18.30;68.30;;;;;;4976816;28;20026;-73
2022/05/22 07:37:36;;;;;;;1.67;1.20;;;18.50;67.80;;;;;;4970471;28;20042;-73
2022/05/22 07:40:01;;;;;;;2.50;1.17;;;18.60;67.40;;;;;;4975928;28;20552;-75
2022/05/22 07:42:27;;;;;;;1.83;1.00;;;18.80;66.90;;;;;;4989849;28;20037;-74
2022/05/22 07:44:52;;;;;;;1.40;1.00;;;19.00;66.00;;;;;;4981855;28;20038;-72
2022/05/22 07:47:18;;;;;;;4.63;1.30;;;19.20;65.60;;;;;;4976756;28;20042;-73
2022/05/22 07:52:27;;;;;;;2.65;1.58;;;19.50;64.70;;;;;;4969047;28;20059;-73
2022/05/22 07:54:53;;;;;;;1.17;0.98;;;19.70;64.20;;;;;;4985945;28;20021;-73
2022/05/22 07:57:18;;;;;;;2.15;1.23;;;19.90;64.00;;;;;;4996029;28;20026;-72
2022/05/22 07:59:44;;;;;;;4.03;1.58;;;20.10;63.50;;;;;;4973326;28;20663;-72
2022/05/22 08:02:13;;;;;;;6.75;1.08;;;20.20;63.20;;;;;;4952679;28;20636;-73
2022/05/22 08:04:40;;;;;;;3.15;1.10;;;20.40;62.50;;;;;;4982024;28;20230;-72
2022/05/22 08:07:05;;;;;;;4.88;1.17;;;20.70;62.10;;;;;;4985049;28;20030;-72
2022/05/22 08:09:31;;;;;;;3.25;1.35;;;20.90;61.60;;;;;;4973695;28;20042;-72
2022/05/22 08:11:56;;;;;;;4.10;1.00;;;21.00;60.90;;;;;;4985100;28;20025;-72
2022/05/22 08:14:22;;;;;;;2.13;0.80;;;21.30;60.40;;;;;;4986757;28;20034;-73
2022/05/22 08:16:47;;;;;;;2.22;0.80;;;21.60;59.90;;;;;;4981118;28;20030;-72
2022/05/22 08:19:13;;;;;;;1.65;0.80;;;21.70;59.20;;;;;;4998910;28;20041;-73
2022/05/22 08:21:38;;;;;;;3.15;0.93;;;21.90;58.50;;;;;;4995354;28;20369;-73
2022/05/22 08:24:04;;;;;;;1.77;1.02;;;22.10;57.90;;;;;;4977551;28;20034;-73
2022/05/22 08:26:30;;;;;;;1.75;0.70;;;22.30;57.30;;;;;;4977423;28;20052;-73
2022/05/22 08:28:55;;;;;;;1.30;0.70;;;22.50;56.60;;;;;;4998048;28;20061;-72
2022/05/22 08:31:21;;;;;;;1.40;0.70;;;22.70;55.60;;;;;;4975374;28;20030;-73
2022/05/22 08:33:46;;;;;;;3.17;0.70;;;23.00;55.40;;;;;;4950936;28;20046;-72
2022/05/22 08:36:12;;;;;;;3.78;0.60;;;23.20;54.90;;;;;;5000284;28;20046;-73
2022/05/22 08:38:37;;;;;;;4.00;0.70;;;23.30;54.40;;;;;;4997322;28;20045;-73
2022/05/22 08:41:11;;;;;;;0.73;0.70;;;23.60;53.80;;;;;;4984011;28;20046;-73
2022/05/22 08:43:48;;;;;;;2.17;0.75;;;23.70;52.70;;;;;;4986569;28;20524;-72
2022/05/22 08:46:18;;;;;;;2.10;0.75;;;23.90;52.00;;;;;;5002929;28;20039;-73
2022/05/22 08:49:25;;;;;;;1.88;0.77;;;24.10;52.40;;;;;;4975986;28;20134;-73
2022/05/22 08:51:53;;;;;;;1.73;0.80;;;24.30;51.00;;;;;;4984464;28;20026;-73
2022/05/22 08:54:24;;;;;;;1.80;0.80;;;24.50;51.70;;;;;;4977862;28;20045;-73
2022/05/22 08:59:39;;;;;;;2.85;1.10;;;24.80;50.90;;;;;;5002209;28;20130;-73
2022/05/22 09:02:14;;;;;;;3.00;0.82;;;25.00;50.50;;;;;;4978531;28;20133;-73
2022/05/22 09:04:47;;;;;;;2.67;0.80;;;25.20;49.80;;;;;;4985778;28;20101;-74
2022/05/22 09:07:38;;;;;;;2.38;0.68;;;25.30;49.60;;;;;;4995542;28;20032;-72
2022/05/22 09:10:06;;;;;;;2.60;0.60;;;25.50;48.50;;;;;;4987789;28;20046;-73
2022/05/22 09:13:03;;;;;;;2.53;0.80;;;25.70;48.80;;;;;;4986408;28;20093;-73
2022/05/22 09:15:51;;;;;;;2.67;1.00;;;25.90;47.30;;;;;;4993341;28;20065;-75
2022/05/22 09:18:37;;;;;;;3.45;1.23;;;26.10;46.90;;;;;;4972228;28;20481;-73
2022/05/22 09:21:10;;;;;;;3.00;0.60;;;26.30;46.70;;;;;;4994255;28;20124;-73
2022/05/22 09:24:03;;;;;;;0.95;0.70;;;26.50;47.20;;;;;;4953073;28;20039;-73
2022/05/22 09:26:53;;;;;;;3.65;1.00;;;26.70;46.10;;;;;;4984279;28;20095;-73
2022/05/22 09:29:48;;;;;;;4.22;1.00;;;26.90;45.50;;;;;;5005263;28;20034;-73
2022/05/22 09:32:18;;;;;;;3.63;0.90;;;27.10;45.40;;;;;;5001779;28;20551;-73
2022/05/22 09:35:11;;;;;;;4.93;1.00;;;27.30;45.80;;;;;;4984700;28;20113;-73
2022/05/22 09:37:58;;;;;;;3.08;1.02;;;27.30;44.50;;;;;;4997250;28;20065;-73
2022/05/22 09:40:48;;;;;;;5.07;1.10;;;27.40;43.80;;;;;;5000789;28;20099;-74
2022/05/22 09:43:18;;;;;;;2.85;1.05;;;27.50;44.60;;;;;;4985177;28;20042;-73
2022/05/22 09:45:56;;;;;;;5.15;1.40;;;27.70;44.40;;;;;;4983021;28;20033;-74
2022/05/22 09:48:51;;;;;;;2.28;1.00;;;27.80;43.40;;;;;;4988506;28;20084;-74
2022/05/22 09:51:40;;;;;;;5.22;0.98;;;27.90;42.70;;;;;;4978849;28;20445;-75
2022/05/22 09:54:36;;;;;;;3.65;0.95;;;28.00;43.40;;;;;;4964952;28;20087;-73
2022/05/22 09:57:11;;;;;;;3.58;0.88;;;28.20;42.30;;;;;;4954794;28;20037;-74
2022/05/22 09:59:50;;;;;;;1.90;0.93;;;28.40;42.30;;;;;;4998740;28;20026;-74
2022/05/22 10:02:23;;;;;;;2.65;0.82;;;28.60;42.70;;;;;;4982993;28;20042;-74
2022/05/22 10:05:03;;;;;;;2.45;0.85;;;28.70;42.30;;;;;;4982738;28;20506;-74
2022/05/22 10:07:43;;;;;;;4.60;1.15;;;28.90;41.50;;;;;;4977700;28;20093;-74
2022/05/22 10:10:33;;;;;;;5.25;2.42;;;29.00;41.70;;;;;;4958788;28;20555;-75
2022/05/22 10:13:05;;;;;;;5.20;2.28;;;29.10;41.10;;;;;;5003252;28;20110;-74
2022/05/22 10:16:00;;;;;;;3.55;1.40;;;29.20;41.10;;;;;;4975965;28;20521;-74
2022/05/22 10:18:36;;;;;;;4.47;1.17;;;29.30;39.90;;;;;;4984408;28;20045;-74
2022/05/22 10:21:17;;;;;;;3.38;1.60;;;29.40;40.40;;;;;;4982585;28;20125;-74
2022/05/22 10:24:06;;;;;;;2.45;0.90;;;29.50;40.30;;;;;;4976017;28;20035;-74
2022/05/22 10:26:37;;;;;;;3.22;0.90;;;29.70;39.60;;;;;;5001140;28;20037;-74
2022/05/22 10:29:06;;;;;;;3.72;0.90;;;29.80;39.60;;;;;;4996645;28;20042;-75
2022/05/22 10:31:46;;;;;;;1.83;0.80;;;30.00;39.70;;;;;;4975318;28;20037;-75
2022/05/22 10:34:24;;;;;;;4.95;0.80;;;30.10;38.50;;;;;;5003929;28;20037;-75
2022/05/22 10:36:52;;;;;;;3.03;0.70;;;30.20;39.00;;;;;;5003885;28;20121;-74
2022/05/22 10:39:19;;;;;;;1.92;0.88;;;30.30;38.80;;;;;;4973313;28;20494;-74
2022/05/22 10:44:36;;;;;;;2.78;0.80;;;30.60;38.50;;;;;;4990730;28;20049;-74
2022/05/22 10:47:02;;;;;;;2.22;0.80;;;30.70;38.20;;;;;;4971609;28;20399;-76
2022/05/22 10:49:37;;;;;;;1.38;0.70;;;30.90;38.10;;;;;;4969493;28;20537;-74
2022/05/22 10:52:03;;;;;;;1.23;0.70;;;31.00;36.60;;;;;;4995069;28;20044;-74
2022/05/22 10:54:34;;;;;;;0.77;0.50;;;31.00;37.40;;;;;;4974405;28;20041;-74
2022/05/22 10:57:12;;;;;;;0.63;0.50;;;31.00;37.30;;;;;;5002471;28;20029;-74
2022/05/22 10:59:38;;;;;;;2.55;0.80;;;31.10;36.50;;;;;;4977340;28;20034;-75
2022/05/22 11:02:04;;;;;;;4.00;0.80;;;31.10;37.10;;;;;;4967039;28;20042;-74
2022/05/22 11:04:40;;;;;;;1.83;0.63;;;31.10;36.70;;;;;;4979139;28;20430;-74
2022/05/22 11:07:06;;;;;;;2.88;0.60;;;31.00;36.10;;;;;;4991359;28;20060;-74
2022/05/22 11:09:34;;;;;;;1.67;0.55;;;31.00;36.70;;;;;;4975121;28;20502;-74
2022/05/22 11:12:10;;;;;;;2.13;0.55;;;31.10;36.60;;;;;;4980756;28;20046;-74
2022/05/22 11:14:35;;;;;;;2.63;0.93;;;31.10;36.00;;;;;;4982183;28;20261;-74
2022/05/22 11:17:15;;;;;;;1.70;0.73;;;31.30;36.20;;;;;;4982202;28;20045;-74
2022/05/22 11:19:41;;;;;;;1.63;0.80;;;31.40;35.30;;;;;;4996726;28;20038;-74
2022/05/22 11:22:37;;;;;;;1.65;0.77;;;31.40;35.80;;;;;;4994073;28;20044;-74
2022/05/22 11:25:38;;;;;;;1.17;0.75;;;31.50;34.80;;;;;;4985599;28;20045;-75
2022/05/22 11:28:22;;;;;;;;;;;31.70;35.10;;;;;;4942398;28;20061;-74
2022/05/22 11:31:17;;;;;;;0.98;0.75;;;31.60;35.80;;;;;;5000861;28;19965;-74
2022/05/22 11:33:47;;;;;;;1.52;0.70;;;31.50;34.80;;;;;;4980902;28;20041;-74
2022/05/22 11:36:49;;;;;;;1.50;0.70;;;31.50;35.30;;;;;;5000081;28;20042;-74
2022/05/22 11:39:23;;;;;;;1.98;1.02;;;31.40;34.80;;;;;;4989937;28;20770;-75
2022/05/22 11:41:50;;;;;;;1.85;0.70;;;31.40;35.60;;;;;;4982620;28;20067;-75
2022/05/22 11:44:31;;;;;;;1.75;0.70;;;31.40;35.40;;;;;;4998013;28;20680;-73
2022/05/22 11:47:27;;;;;;;1.70;0.63;;;31.50;35.10;;;;;;4996295;28;20042;-74
2022/05/22 11:50:22;;;;;;;2.83;0.70;;;31.50;34.40;;;;;;4997618;28;20030;-75
2022/05/22 11:53:13;;;;;;;13.80;1.75;;;31.60;33.90;;;;;;4970606;28;20175;-75
2022/05/22 11:55:50;;;;;;;6.57;1.03;;;31.70;34.50;;;;;;5000046;28;20091;-74
2022/05/22 11:58:26;;;;;;;3.72;0.90;;;31.70;34.30;;;;;;4992940;28;20741;-75
2022/05/22 12:01:19;;;;;;;2.10;0.80;;;31.80;34.60;;;;;;4978560;28;20219;-75
2022/05/22 12:04:03;;;;;;;3.78;0.80;;;32.00;33.80;;;;;;4986526;28;20727;-74
2022/05/22 12:06:53;;;;;;;1.27;0.60;;;32.10;33.80;;;;;;5007405;28;20138;-74
2022/05/22 12:09:38;;;;;;;2.20;0.50;;;32.10;34.00;;;;;;4992318;28;20043;-75
2022/05/22 12:12:30;;;;;;;1.23;0.60;;;32.20;34.50;;;;;;5005487;28;20042;-74
2022/05/22 12:15:06;;;;;;;1.13;0.60;;;32.30;33.90;;;;;;4990372;28;20707;-74
2022/05/22 12:17:42;;;;;;;2.42;0.82;;;32.40;33.60;;;;;;4972140;28;20202;-74
2022/05/22 12:20:29;;;;;;;0.88;0.63;;;32.40;33.90;;;;;;5001952;28;20071;-75
2022/05/22 12:23:17;;;;;;;8.23;0.93;;;32.40;33.30;;;;;;4995997;28;20038;-74
2022/05/22 12:25:54;;;;;;;1.83;0.65;;;32.40;33.50;;;;;;4992106;28;20026;-74
2022/05/22 12:28:39;;;;;;;1.50;0.60;;;32.40;33.40;;;;;;5009706;28;20689;-74
2022/05/22 12:31:12;;;;;;;1.38;0.60;;;32.30;33.00;;;;;;4966935;28;20121;-74
2022/05/22 12:33:38;;;;;;;2.10;0.90;;;32.20;33.30;;;;;;4992715;28;20517;-74
2022/05/22 12:36:04;;;;;;;2.83;0.85;;;32.20;33.50;;;;;;4977271;28;20045;-74
2022/05/22 12:38:30;;;;;;;1.42;0.77;;;32.10;33.30;;;;;;4985891;28;20105;-76
2022/05/22 12:41:10;;;;;;;1.42;0.70;;;32.00;33.20;;;;;;4964456;28;20046;-74
2022/05/22 12:43:35;;;;;;;1.13;0.65;;;32.00;33.50;;;;;;4972917;28;20029;-73
2022/05/22 12:46:03;;;;;;;3.22;0.80;;;32.00;33.20;;;;;;4996655;28;20042;-75
2022/05/22 12:48:35;;;;;;;1.52;0.80;;;32.10;33.20;;;;;;4960246;28;20569;-74
2022/05/22 12:51:11;;;;;;;3.30;0.80;;;32.10;33.00;;;;;;5004264;28;20091;-74
2022/05/22 12:53:42;;;;;;;2.20;0.80;;;32.10;32.30;;;;;;4969037;28;20040;-75
2022/05/22 12:56:20;;;;;;;2.83;0.70;;;32.00;32.80;;;;;;4989355;28;20549;-74
2022/05/22 12:58:54;;;;;;;3.42;0.80;;;32.10;32.10;;;;;;4993437;28;20042;-76
2022/05/22 13:01:27;;;;;;;3.05;0.70;;;32.20;32.30;;;;;;4995804;28;20085;-74
2022/05/22 13:03:55;;;;;;;2.08;0.65;;;32.20;32.50;;;;;;4959824;28;20042;-75
2022/05/22 13:06:23;;;;;;;7.85;0.98;;;32.30;32.60;;;;;;4991515;28;20113;-74
2022/05/22 13:09:09;;;;;;;2.78;0.70;;;32.40;32.50;;;;;;4973925;28;20750;-74
2022/05/22 13:11:41;;;;;;;1.15;0.80;;;32.60;32.40;;;;;;5003340;28;20072;-75
2022/05/22 13:14:19;;;;;;;1.67;0.52;;;32.60;32.00;;;;;;4969244;28;20045;-74
2022/05/22 13:16:47;;;;;;;1.73;0.82;;;32.80;32.20;;;;;;4987206;28;20104;-74
2022/05/22 13:19:20;;;;;;;1.48;0.80;;;32.90;32.30;;;;;;5012514;28;20041;-74
2022/05/22 13:21:46;;;;;;;1.00;0.60;;;33.00;31.80;;;;;;5001395;28;20049;-74
2022/05/22 13:24:17;;;;;;;3.33;1.10;;;33.00;32.00;;;;;;4997971;28;20408;-74
2022/05/22 13:27:02;;;;;;;1.95;0.88;;;33.10;31.30;;;;;;5003354;28;20550;-74